Time;durP1;ratioP1;P1;durP2;ratioP2;P2;SDS_P1;SDS_P2;PMS_P1;PMS_P2;Temp;Humidity;BMP_temperature;BMP_pressure;BME280_temperature;BME280_humidity;BME280_pressure;Samples;Min_cycle;Max_cycle;Signal;HPM_P1;HPM_P2
2022/06/28 00:02:28;;;;;;;15.30;3.45;;;;;;;;;;10148846;29;20482;-84
2022/06/28 00:07:30;;;;;;;15.13;3.47;;;;;;;;;;10152954;29;20435;-84
2022/06/28 00:12:33;;;;;;;12.02;3.35;;;;;;;;;;10144358;29;20455;-85
2022/06/28 00:17:35;;;;;;;10.90;3.70;;;;;;;;;;10151832;29;20406;-85
2022/06/28 00:22:37;;;;;;;11.77;3.70;;;;;;;;;;10153758;29;20426;-84
2022/06/28 00:27:41;;;;;;;11.83;3.80;;;;;;;;;;10148149;29;20447;-85
2022/06/28 00:32:43;;;;;;;11.30;4.00;;;;;;;;;;10148166;29;20496;-85
2022/06/28 00:37:45;;;;;;;16.83;3.90;;;;;;;;;;10148304;29;20518;-85
2022/06/28 00:42:48;;;;;;;13.65;3.40;;;;;;;;;;10147867;29;20904;-85
2022/06/28 00:47:50;;;;;;;15.13;3.47;;;;;;;;;;10149262;29;20446;-84
2022/06/28 00:53:00;;;;;;;11.57;3.45;;;;;;;;;;10145219;29;20421;-84
2022/06/28 00:58:03;;;;;;;12.47;3.40;;;;;;;;;;10142178;29;20428;-84
2022/06/28 01:03:06;;;;;;;11.50;3.90;;;;;;;;;;10146584;29;20496;-84
2022/06/28 01:08:09;;;;;;;10.88;3.13;;;;;;;;;;10145069;29;20433;-85
2022/06/28 01:13:12;;;;;;;12.83;3.67;;;;;;;;;;10145196;29;20415;-84
2022/06/28 01:18:14;;;;;;;14.93;4.20;;;;;;;;;;10147511;29;20434;-85
2022/06/28 01:23:20;;;;;;;12.30;3.70;;;;;;;;;;10149641;29;20504;-84
2022/06/28 01:28:22;;;;;;;11.90;3.50;;;;;;;;;;10147173;29;20440;-85
2022/06/28 01:33:23;;;;;;;10.53;3.30;;;;;;;;;;10144036;29;20413;-82
2022/06/28 01:38:27;;;;;;;15.30;3.80;;;;;;;;;;10145559;29;20521;-84
2022/06/28 01:43:32;;;;;;;12.32;3.60;;;;;;;;;;10143157;29;20508;-84
2022/06/28 01:48:34;;;;;;;10.75;3.55;;;;;;;;;;10163349;29;20540;-83
2022/06/28 01:53:37;;;;;;;14.43;4.07;;;;;;;;;;10188407;23;20527;-83
2022/06/28 01:58:39;;;;;;;12.13;3.40;;;;;;;;;;10202066;29;20414;-83
2022/06/28 02:03:41;;;;;;;15.27;3.90;;;;;;;;;;10201272;29;20428;-82
2022/06/28 02:08:45;;;;;;;12.07;3.40;;;;;;;;;;10198915;29;20528;-82
2022/06/28 02:13:47;;;;;;;11.73;3.50;;;;;;;;;;10220177;29;20414;-83
2022/06/28 02:18:49;;;;;;;12.02;3.40;;;;;;;;;;10205785;29;20492;-83
2022/06/28 02:23:52;;;;;;;14.88;4.13;;;;;;;;;;10206231;29;21200;-82
2022/06/28 02:28:54;;;;;;;9.77;3.40;;;;;;;;;;10219676;29;20440;-81
2022/06/28 02:33:56;;;;;;;14.15;3.65;;;;;;;;;;10205254;29;20416;-83
2022/06/28 02:44:19;;;;;;;10.20;3.45;;;;;;;;;;10205536;29;20410;-83
2022/06/28 02:49:21;;;;;;;17.58;3.90;;;;;;;;;;10204918;29;20516;-83
2022/06/28 02:54:25;;;;;;;11.45;3.42;;;;;;;;;;10205193;29;20422;-83
2022/06/28 02:59:26;;;;;;;11.73;3.50;;;;;;;;;;10205623;29;20517;-83
2022/06/28 03:04:28;;;;;;;15.20;3.93;;;;;;;;;;10217558;29;20517;-83
2022/06/28 03:09:31;;;;;;;14.35;3.83;;;;;;;;;;10204699;29;20434;-83
2022/06/28 03:14:33;;;;;;;11.70;3.60;;;;;;;;;;10204487;29;20526;-83
2022/06/28 03:19:35;;;;;;;13.73;3.67;;;;;;;;;;10203556;29;20494;-82
2022/06/28 03:24:38;;;;;;;14.93;4.45;;;;;;;;;;10203602;29;20406;-83
2022/06/28 03:29:41;;;;;;;12.93;4.40;;;;;;;;;;10203603;29;20434;-82
2022/06/28 03:34:42;;;;;;;14.75;4.70;;;;;;;;;;10203198;29;20429;-83
2022/06/28 03:39:46;;;;;;;12.47;3.93;;;;;;;;;;10203825;29;20410;-82
2022/06/28 03:44:48;;;;;;;9.43;3.92;;;;;;;;;;10203222;29;20957;-82
2022/06/28 03:49:49;;;;;;;10.80;4.20;;;;;;;;;;10202390;29;21179;-82
2022/06/28 03:54:52;;;;;;;10.50;4.27;;;;;;;;;;10202677;29;20414;-83
2022/06/28 03:59:56;;;;;;;9.52;4.45;;;;;;;;;;10203170;29;20425;-84
2022/06/28 04:04:58;;;;;;;13.13;4.33;;;;;;;;;;10208354;29;20453;-83
2022/06/28 04:10:01;;;;;;;11.68;4.43;;;;;;;;;;10196952;29;20429;-84
2022/06/28 04:15:03;;;;;;;11.63;4.07;;;;;;;;;;10200143;29;20504;-83
2022/06/28 04:20:06;;;;;;;12.85;4.03;;;;;;;;;;10193560;29;20505;-83
2022/06/28 04:25:10;;;;;;;13.82;3.90;;;;;;;;;;10200932;29;20417;-84
2022/06/28 04:30:12;;;;;;;12.47;4.10;;;;;;;;;;10196629;29;20438;-84
2022/06/28 04:35:14;;;;;;;13.50;4.10;;;;;;;;;;10193293;29;20429;-83
2022/06/28 04:40:17;;;;;;;10.90;3.95;;;;;;;;;;10199203;29;20424;-84
2022/06/28 04:45:19;;;;;;;12.93;3.92;;;;;;;;;;10199669;29;20484;-84
2022/06/28 04:50:21;;;;;;;13.60;3.75;;;;;;;;;;10193648;29;20436;-84
2022/06/28 04:55:25;;;;;;;12.70;3.90;;;;;;;;;;10199287;29;20851;-84
2022/06/28 05:00:28;;;;;;;14.05;4.07;;;;;;;;;;10201570;29;20497;-84
2022/06/28 05:05:30;;;;;;;13.00;4.00;;;;;;;;;;10198623;29;20798;-86
2022/06/28 05:10:33;;;;;;;13.90;3.72;;;;;;;;;;10204132;29;20474;-85
2022/06/28 05:15:35;;;;;;;16.05;4.10;;;;;;;;;;10202384;29;20414;-85
2022/06/28 05:20:37;;;;;;;14.40;4.00;;;;;;;;;;10196487;29;20413;-85
2022/06/28 05:25:40;;;;;;;12.98;3.88;;;;;;;;;;10200049;29;20449;-85
2022/06/28 05:30:42;;;;;;;14.75;4.35;;;;;;;;;;10205274;29;20517;-85
2022/06/28 05:35:44;;;;;;;21.05;4.80;;;;;;;;;;10194074;29;20424;-85
2022/06/28 05:40:47;;;;;;;15.13;4.32;;;;;;;;;;10198595;29;20806;-85
2022/06/28 05:45:49;;;;;;;17.15;5.45;;;;;;;;;;10203915;29;21101;-84
2022/06/28 05:50:51;;;;;;;12.83;4.50;;;;;;;;;;10201313;29;20425;-83
2022/06/28 05:55:54;;;;;;;12.60;4.57;;;;;;;;;;10207419;29;20424;-81
2022/06/28 06:00:56;;;;;;;14.27;4.78;;;;;;;;;;10210624;29;20438;-84
2022/06/28 06:05:57;;;;;;;17.03;4.50;;;;;;;;;;10204409;29;20414;-84
2022/06/28 06:11:00;;;;;;;12.18;4.10;;;;;;;;;;10204046;29;20626;-84
2022/06/28 06:16:03;;;;;;;16.97;4.07;;;;;;;;;;10204969;29;20412;-83
2022/06/28 06:21:07;;;;;;;16.60;4.30;;;;;;;;;;10199310;29;21625;-84
2022/06/28 06:26:11;;;;;;;15.05;3.83;;;;;;;;;;10204723;29;20424;-84
2022/06/28 06:31:12;;;;;;;10.68;3.40;;;;;;;;;;10201532;29;20529;-84
2022/06/28 06:36:14;;;;;;;10.30;2.90;;;;;;;;;;10204844;29;20460;-84
2022/06/28 06:41:17;;;;;;;15.57;3.28;;;;;;;;;;10202292;29;20481;-85
2022/06/28 06:46:19;;;;;;;10.43;2.97;;;;;;;;;;10204016;29;20434;-84
2022/06/28 06:51:21;;;;;;;12.60;3.10;;;;;;;;;;10195071;29;20623;-83
2022/06/28 06:56:24;;;;;;;13.95;3.40;;;;;;;;;;10203240;29;20421;-84
2022/06/28 07:01:29;;;;;;;10.02;3.10;;;;;;;;;;10206487;29;21497;-83
2022/06/28 07:06:30;;;;;;;14.98;3.33;;;;;;;;;;10203407;29;20429;-84
2022/06/28 07:11:34;;;;;;;14.57;3.83;;;;;;;;;;10204439;29;20786;-85
2022/06/28 07:16:36;;;;;;;14.68;3.95;;;;;;;;;;10198172;29;20423;-84
2022/06/28 07:21:38;;;;;;;14.68;4.10;;;;;;;;;;10193715;29;20424;-83
2022/06/28 07:26:41;;;;;;;13.90;3.83;;;;;;;;;;10192141;29;20408;-84
2022/06/28 07:31:44;;;;;;;15.77;3.83;;;;;;;;;;10183519;29;20916;-84
2022/06/28 07:36:46;;;;;;;14.40;4.30;;;;;;;;;;10183259;29;20415;-85
2022/06/28 07:41:49;;;;;;;18.77;3.75;;;;;;;;;;10186500;29;20468;-84
2022/06/28 07:46:52;;;;;;;18.02;3.85;;;;;;;;;;10182905;29;20514;-84
2022/06/28 07:57:15;;;;;;;13.23;3.33;;;;;;;;;;10183935;29;20386;-83
2022/06/28 08:02:17;;;;;;;13.93;3.53;;;;;;;;;;10189098;29;20462;-84
2022/06/28 08:07:19;;;;;;;15.55;3.38;;;;;;;;;;10182742;29;20522;-84
2022/06/28 08:12:22;;;;;;;13.03;3.30;;;;;;;;;;10178602;29;20454;-83
2022/06/28 08:17:24;;;;;;;16.70;3.35;;;;;;;;;;10178421;29;20443;-82
2022/06/28 08:22:26;;;;;;;17.42;4.43;;;;;;;;;;10186902;29;20500;-84
2022/06/28 08:27:30;;;;;;;16.67;3.38;;;;;;;;;;10187123;29;20974;-84
2022/06/28 08:32:31;;;;;;;19.52;3.63;;;;;;;;;;10187367;29;20914;-83
2022/06/28 08:37:33;;;;;;;14.20;3.75;;;;;;;;;;10181404;29;20420;-84
2022/06/28 08:42:40;;;;;;;21.40;3.20;;;;;;;;;;10189380;29;20413;-83
2022/06/28 08:47:43;;;;;;;17.58;4.13;;;;;;;;;;10183386;29;20431;-83
2022/06/28 08:52:46;;;;;;;15.77;3.70;;;;;;;;;;10178063;29;20440;-83
2022/06/28 08:57:49;;;;;;;16.55;3.67;;;;;;;;;;10186329;29;20429;-83
2022/06/28 09:02:52;;;;;;;14.07;3.78;;;;;;;;;;10176279;29;20750;-83
2022/06/28 09:07:55;;;;;;;16.90;3.57;;;;;;;;;;10185463;29;20794;-83
2022/06/28 09:13:11;;;;;;;16.00;3.40;;;;;;;;;;10180422;29;20440;-83
2022/06/28 09:18:12;;;;;;;14.97;3.33;;;;;;;;;;10181868;29;20434;-83
2022/06/28 09:23:29;;;;;;;13.10;3.03;;;;;;;;;;10193526;29;20431;-83
2022/06/28 09:28:33;;;;;;;13.75;3.05;;;;;;;;;;10191654;29;20512;-83
2022/06/28 09:33:34;;;;;;;11.73;3.30;;;;;;;;;;10185236;29;20437;-82
2022/06/28 09:38:36;;;;;;;14.07;2.93;;;;;;;;;;10182217;29;20760;-84
2022/06/28 09:43:39;;;;;;;11.90;2.72;;;;;;;;;;10192323;29;20424;-84
2022/06/28 09:48:41;;;;;;;13.38;3.25;;;;;;;;;;10195563;29;20516;-84
2022/06/28 09:53:44;;;;;;;9.70;2.83;;;;;;;;;;10195090;29;20424;-84
2022/06/28 09:58:48;;;;;;;13.35;3.20;;;;;;;;;;10195328;29;20414;-84
2022/06/28 10:03:50;;;;;;;13.63;2.97;;;;;;;;;;10195968;29;20422;-84
2022/06/28 10:08:52;;;;;;;11.68;2.72;;;;;;;;;;10196123;29;20433;-84
2022/06/28 10:19:20;;;;;;;11.82;2.80;;;;;;;;;;10190515;29;20961;-84
2022/06/28 10:24:22;;;;;;;10.32;2.63;;;;;;;;;;10196061;29;20505;-84
2022/06/28 10:29:25;;;;;;;13.63;3.53;;;;;;;;;;10196105;29;20440;-84
2022/06/28 10:34:51;;;;;;;13.10;3.30;;;;;;;;;;10195212;29;20416;-84
2022/06/28 10:40:29;;;;;;;14.50;3.55;;;;;;;;;;10172312;29;20777;-84
2022/06/28 10:46:06;;;;;;;11.80;3.38;;;;;;;;;;10177621;29;20974;-84
2022/06/28 10:51:08;;;;;;;9.70;3.10;;;;;;;;;;10187519;29;20429;-84
2022/06/28 10:56:19;;;;;;;13.30;3.20;;;;;;;;;;10184675;29;20425;-84
2022/06/28 11:02:00;;;;;;;12.73;3.65;;;;;;;;;;10183937;29;20505;-84
2022/06/28 11:07:08;;;;;;;13.50;2.90;;;;;;;;;;10179376;29;20425;-85
2022/06/28 11:12:12;;;;;;;11.93;3.35;;;;;;;;;;10195041;29;20430;-84
2022/06/28 11:17:16;;;;;;;12.27;3.13;;;;;;;;;;10201052;29;20461;-84
2022/06/28 11:22:20;;;;;;;13.35;2.97;;;;;;;;;;10190634;29;20439;-84
2022/06/28 11:27:22;;;;;;;14.77;3.00;;;;;;;;;;10191204;29;20787;-84
2022/06/28 11:32:29;;;;;;;11.23;3.23;;;;;;;;;;10190769;29;20440;-85
2022/06/28 11:37:34;;;;;;;15.90;3.20;;;;;;;;;;10182410;29;20508;-83
2022/06/28 11:42:35;;;;;;;11.77;3.13;;;;;;;;;;10184948;29;20418;-85
2022/06/28 11:47:42;;;;;;;11.95;3.30;;;;;;;;;;10196514;29;20410;-84
2022/06/28 11:52:49;;;;;;;17.10;3.20;;;;;;;;;;10195008;29;20524;-85
2022/06/28 11:58:15;;;;;;;12.35;3.20;;;;;;;;;;10194815;29;20420;-84
2022/06/28 12:03:19;;;;;;;15.60;3.07;;;;;;;;;;10195250;29;20449;-85
2022/06/28 12:08:21;;;;;;;10.18;3.05;;;;;;;;;;10181331;29;20422;-84
2022/06/28 12:13:23;;;;;;;14.65;3.33;;;;;;;;;;10168181;29;20437;-84
2022/06/28 12:18:26;;;;;;;10.50;2.95;;;;;;;;;;10179786;29;20777;-85
2022/06/28 12:23:28;;;;;;;10.20;2.15;;;;;;;;;;10183139;29;20511;-85
2022/06/28 12:28:30;;;;;;;15.20;2.40;;;;;;;;;;10179526;29;20422;-85
2022/06/28 12:33:33;;;;;;;9.10;2.70;;;;;;;;;;10184582;29;20437;-85
2022/06/28 12:38:35;;;;;;;13.10;2.20;;;;;;;;;;10178060;29;20514;-85
2022/06/28 12:43:37;;;;;;;11.17;3.00;;;;;;;;;;10182715;29;20426;-85
2022/06/28 12:48:40;;;;;;;12.10;3.03;;;;;;;;;;10184550;29;20469;-84
2022/06/28 12:53:43;;;;;;;13.20;3.30;;;;;;;;;;10188553;29;20510;-84
2022/06/28 12:58:46;;;;;;;12.85;3.30;;;;;;;;;;10187214;29;21012;-82
2022/06/28 13:03:49;;;;;;;12.50;3.35;;;;;;;;;;10189859;29;20469;-86
2022/06/28 13:08:51;;;;;;;11.02;3.55;;;;;;;;;;10192749;29;20418;-86
2022/06/28 13:13:53;;;;;;;11.47;3.37;;;;;;;;;;10192278;29;20430;-85
2022/06/28 13:18:57;;;;;;;12.03;3.80;;;;;;;;;;10194806;29;20420;-84
2022/06/28 13:23:58;;;;;;;13.47;3.60;;;;;;;;;;10200448;29;20930;-85
2022/06/28 13:29:00;;;;;;;13.25;3.80;;;;;;;;;;10201677;29;20424;-85
2022/06/28 13:34:04;;;;;;;13.65;4.35;;;;;;;;;;10193585;29;20426;-85
2022/06/28 13:39:06;;;;;;;9.73;3.95;;;;;;;;;;10202021;29;20764;-85
2022/06/28 13:44:08;;;;;;;13.07;4.60;;;;;;;;;;10202923;29;20449;-85
2022/06/28 13:49:13;;;;;;;14.02;4.22;;;;;;;;;;10188014;29;20423;-84
2022/06/28 13:54:15;;;;;;;10.20;3.80;;;;;;;;;;10201195;29;20442;-83
2022/06/28 13:59:17;;;;;;;12.05;4.50;;;;;;;;;;10231932;23;20427;-84
2022/06/28 14:04:20;;;;;;;12.63;4.43;;;;;;;;;;10227757;29;20415;-84
2022/06/28 14:09:22;;;;;;;12.45;3.70;;;;;;;;;;10240357;29;20436;-84
2022/06/28 14:14:24;;;;;;;13.23;4.03;;;;;;;;;;10227052;29;20501;-83
2022/06/28 14:19:27;;;;;;;16.25;4.05;;;;;;;;;;10264241;29;20412;-84
2022/06/28 14:24:29;;;;;;;13.32;4.00;;;;;;;;;;10244769;29;20897;-84
2022/06/28 14:29:33;;;;;;;11.45;4.00;;;;;;;;;;10235978;29;20475;-84
2022/06/28 14:34:36;;;;;;;17.83;4.57;;;;;;;;;;10229094;29;20419;-83
2022/06/28 14:39:39;;;;;;;12.27;3.90;;;;;;;;;;10234755;29;20536;-84
2022/06/28 14:44:41;;;;;;;16.77;4.07;;;;;;;;;;10234240;29;20404;-85
2022/06/28 14:49:44;;;;;;;12.00;3.90;;;;;;;;;;10236360;29;20416;-84
2022/06/28 14:54:47;;;;;;;14.27;4.18;;;;;;;;;;10235460;29;20434;-84
2022/06/28 14:59:49;;;;;;;12.20;3.88;;;;;;;;;;10227927;29;20500;-83
2022/06/28 15:04:52;;;;;;;16.77;4.30;;;;;;;;;;10223203;29;20422;-83
2022/06/28 15:09:54;;;;;;;12.30;4.32;;;;;;;;;;10222832;29;20776;-84
2022/06/28 15:14:56;;;;;;;11.20;4.05;;;;;;;;;;10221607;29;20777;-83
2022/06/28 15:19:59;;;;;;;13.82;3.90;;;;;;;;;;10225477;28;20900;-83
2022/06/28 15:35:41;;;;;;;11.40;3.67;;;;;;;;;;10226733;29;20551;-82
2022/06/28 15:40:43;;;;;;;14.70;4.37;;;;;;;;;;10224919;29;20418;-84
2022/06/28 15:45:45;;;;;;;13.73;4.23;;;;;;;;;;10218107;29;20412;-84
2022/06/28 15:50:48;;;;;;;16.00;4.05;;;;;;;;;;10236833;29;20440;-84
2022/06/28 15:55:52;;;;;;;14.20;4.35;;;;;;;;;;10234804;29;20499;-81
2022/06/28 16:00:54;;;;;;;13.13;3.95;;;;;;;;;;10227738;29;20447;-83
2022/06/28 16:05:57;;;;;;;12.48;3.65;;;;;;;;;;10220387;29;20418;-82
2022/06/28 16:11:00;;;;;;;16.63;4.00;;;;;;;;;;10221585;29;20435;-84
2022/06/28 16:16:04;;;;;;;12.98;4.55;;;;;;;;;;10218179;29;20428;-83
2022/06/28 16:21:08;;;;;;;14.40;3.83;;;;;;;;;;10222690;29;20443;-85
2022/06/28 16:26:11;;;;;;;13.85;3.60;;;;;;;;;;10234056;29;20505;-84
2022/06/28 16:31:13;;;;;;;14.05;3.80;;;;;;;;;;10235496;28;20434;-84
2022/06/28 16:36:16;;;;;;;15.27;3.93;;;;;;;;;;10232236;29;20424;-84
2022/06/28 16:41:18;;;;;;;15.73;3.80;;;;;;;;;;10229433;29;20419;-83
2022/06/28 16:46:21;;;;;;;17.58;4.40;;;;;;;;;;10228960;29;20710;-84
2022/06/28 16:51:24;;;;;;;16.20;4.20;;;;;;;;;;10228704;29;20523;-83
2022/06/28 16:56:26;;;;;;;13.67;3.80;;;;;;;;;;10233110;29;20422;-84
2022/06/28 17:01:27;;;;;;;13.98;3.78;;;;;;;;;;10231886;29;20504;-85
2022/06/28 17:11:50;;;;;;;15.13;3.83;;;;;;;;;;10233497;29;20460;-83
2022/06/28 17:16:52;;;;;;;14.82;3.95;;;;;;;;;;10225456;29;20418;-84
2022/06/28 17:21:55;;;;;;;15.82;4.22;;;;;;;;;;10227086;29;20422;-83
2022/06/28 17:26:57;;;;;;;16.45;4.20;;;;;;;;;;10229091;29;20408;-84
2022/06/28 17:31:59;;;;;;;16.97;4.57;;;;;;;;;;10235194;29;20789;-84
2022/06/28 17:37:02;;;;;;;14.57;4.60;;;;;;;;;;10229032;29;20410;-84
2022/06/28 17:42:07;;;;;;;15.95;4.25;;;;;;;;;;10222997;29;20434;-83
2022/06/28 17:47:09;;;;;;;16.95;4.18;;;;;;;;;;10220905;29;21119;-83
2022/06/28 17:52:12;;;;;;;15.73;4.10;;;;;;;;;;10216947;29;20781;-83
2022/06/28 17:57:16;;;;;;;14.50;3.83;;;;;;;;;;10219350;29;20566;-83
2022/06/28 18:02:17;;;;;;;18.30;4.33;;;;;;;;;;10214188;29;20476;-83
2022/06/28 18:07:25;;;;;;;16.48;4.45;;;;;;;;;;10219243;29;20430;-83
2022/06/28 18:12:28;;;;;;;15.02;3.67;;;;;;;;;;10203973;29;21208;-76
2022/06/28 18:17:30;;;;;;;14.75;3.92;;;;;;;;;;10204839;29;20428;-82
2022/06/28 18:22:34;;;;;;;16.95;4.22;;;;;;;;;;10205598;29;20456;-81
2022/06/28 18:27:36;;;;;;;16.40;4.10;;;;;;;;;;10215430;29;20412;-81
2022/06/28 18:32:38;;;;;;;18.35;4.50;;;;;;;;;;10213700;29;20436;-81
2022/06/28 18:37:43;;;;;;;21.37;4.27;;;;;;;;;;10214377;29;20424;-80
2022/06/28 18:42:45;;;;;;;21.00;4.60;;;;;;;;;;10223584;29;20439;-81
2022/06/28 18:47:50;;;;;;;19.07;4.13;;;;;;;;;;10218853;29;20432;-81
2022/06/28 18:52:54;;;;;;;14.07;3.78;;;;;;;;;;10222041;28;20463;-82
2022/06/28 18:57:56;;;;;;;20.42;4.38;;;;;;;;;;10225099;29;20424;-82
2022/06/28 19:02:58;;;;;;;16.70;4.25;;;;;;;;;;10231565;29;20427;-82
2022/06/28 19:08:04;;;;;;;16.20;4.07;;;;;;;;;;10230228;29;20530;-82
2022/06/28 19:13:06;;;;;;;20.87;5.00;;;;;;;;;;10232314;29;21729;-82
2022/06/28 19:18:08;;;;;;;16.67;4.72;;;;;;;;;;10232773;29;20439;-81
2022/06/28 19:23:14;;;;;;;15.40;4.35;;;;;;;;;;10233090;29;20416;-88
2022/06/28 19:28:16;;;;;;;13.20;3.95;;;;;;;;;;10228548;29;20494;-82
2022/06/28 19:33:18;;;;;;;14.13;4.15;;;;;;;;;;10226940;29;20795;-81
2022/06/28 19:38:21;;;;;;;14.07;3.88;;;;;;;;;;10225814;29;20462;-83
2022/06/28 19:43:23;;;;;;;14.85;4.00;;;;;;;;;;10234445;29;20455;-82
2022/06/28 19:48:28;;;;;;;16.48;4.20;;;;;;;;;;10225997;29;20457;-83
2022/06/28 19:53:34;;;;;;;11.75;3.88;;;;;;;;;;10226476;29;20492;-82
2022/06/28 19:58:35;;;;;;;13.55;4.88;;;;;;;;;;10230244;29;20810;-83
2022/06/28 20:03:37;;;;;;;17.37;4.53;;;;;;;;;;10231429;29;20546;-82
2022/06/28 20:08:42;;;;;;;17.63;4.10;;;;;;;;;;10237870;29;21262;-83
2022/06/28 20:13:48;;;;;;;16.98;4.15;;;;;;;;;;10226766;29;20432;-84
2022/06/28 20:18:50;;;;;;;19.42;4.05;;;;;;;;;;10229131;29;20495;-84
2022/06/28 20:23:55;;;;;;;15.25;4.20;;;;;;;;;;10227750;29;20424;-82
2022/06/28 20:28:59;;;;;;;13.27;4.23;;;;;;;;;;10225120;29;20905;-83
2022/06/28 20:34:01;;;;;;;15.35;4.63;;;;;;;;;;10227377;29;20527;-83
2022/06/28 20:39:05;;;;;;;14.63;4.10;;;;;;;;;;10225286;29;20456;-83
2022/06/28 20:44:09;;;;;;;19.80;5.30;;;;;;;;;;10225587;29;20871;-83
2022/06/28 20:49:13;;;;;;;15.60;4.70;;;;;;;;;;10223789;29;20760;-83
2022/06/28 20:54:17;;;;;;;19.25;4.70;;;;;;;;;;10226823;29;21034;-82
2022/06/28 20:59:19;;;;;;;15.00;4.90;;;;;;;;;;10225848;29;20428;-82
2022/06/28 21:04:23;;;;;;;18.03;4.90;;;;;;;;;;10222041;29;20416;-84
2022/06/28 21:09:26;;;;;;;16.13;5.05;;;;;;;;;;10220249;29;21449;-83
2022/06/28 21:14:28;;;;;;;19.70;5.00;;;;;;;;;;10227524;28;20432;-84
2022/06/28 21:19:30;;;;;;;19.65;5.40;;;;;;;;;;10226405;29;20420;-83
2022/06/28 21:24:33;;;;;;;24.13;6.30;;;;;;;;;;10226215;29;20860;-83
2022/06/28 21:29:35;;;;;;;18.58;5.60;;;;;;;;;;10225157;29;20416;-82
2022/06/28 21:34:37;;;;;;;24.88;7.32;;;;;;;;;;10229007;29;20444;-82
2022/06/28 21:39:40;;;;;;;19.85;6.45;;;;;;;;;;10233916;29;20494;-83
2022/06/28 21:44:42;;;;;;;18.70;6.75;;;;;;;;;;10233392;29;20430;-83
2022/06/28 21:49:44;;;;;;;19.80;6.70;;;;;;;;;;10234151;29;20423;-83
2022/06/28 21:54:47;;;;;;;19.90;6.90;;;;;;;;;;10230648;29;20428;-83
2022/06/28 21:59:49;;;;;;;17.00;6.20;;;;;;;;;;10226840;29;20999;-83
2022/06/28 22:04:51;;;;;;;17.13;6.25;;;;;;;;;;10231623;29;20420;-83
2022/06/28 22:09:54;;;;;;;15.35;5.95;;;;;;;;;;10234458;29;20404;-83
2022/06/28 22:14:56;;;;;;;16.23;6.07;;;;;;;;;;10234585;29;20438;-84
2022/06/28 22:19:57;;;;;;;15.63;5.55;;;;;;;;;;10226668;29;20422;-84
2022/06/28 22:25:01;;;;;;;15.03;5.63;;;;;;;;;;10221623;29;20499;-84
2022/06/28 22:30:03;;;;;;;17.55;5.60;;;;;;;;;;10225516;28;20410;-84
2022/06/28 22:35:06;;;;;;;11.73;4.70;;;;;;;;;;10229543;29;20951;-83
2022/06/28 22:40:11;;;;;;;14.83;5.00;;;;;;;;;;10221510;29;20953;-84
2022/06/28 22:45:13;;;;;;;13.50;5.63;;;;;;;;;;10223845;29;20416;-83
2022/06/28 22:50:15;;;;;;;11.43;4.63;;;;;;;;;;10226390;29;20519;-83
2022/06/28 22:55:18;;;;;;;16.13;4.83;;;;;;;;;;10227862;29;20519;-83
2022/06/28 23:00:20;;;;;;;13.88;5.05;;;;;;;;;;10224436;29;20516;-83
2022/06/28 23:05:22;;;;;;;18.30;4.75;;;;;;;;;;10228267;29;20417;-83
2022/06/28 23:15:56;;;;;;;17.52;5.40;;;;;;;;;;10153478;29;20807;-84
2022/06/28 23:20:58;;;;;;;24.50;7.38;;;;;;;;;;10230141;29;20420;-83
2022/06/28 23:26:01;;;;;;;17.70;5.43;;;;;;;;;;10230613;29;20851;-84
2022/06/28 23:31:03;;;;;;;14.13;5.10;;;;;;;;;;10230645;29;20415;-83
2022/06/28 23:36:05;;;;;;;17.23;4.97;;;;;;;;;;10230575;29;20404;-84
2022/06/28 23:41:08;;;;;;;18.20;5.60;;;;;;;;;;10230760;28;20411;-83
2022/06/28 23:46:10;;;;;;;12.27;4.67;;;;;;;;;;10229658;29;20506;-84
2022/06/28 23:51:12;;;;;;;13.30;4.30;;;;;;;;;;10229533;29;20414;-82
2022/06/28 23:56:15;;;;;;;14.93;4.20;;;;;;;;;;10230590;29;20432;-83
